createdAt,value
2023-05-14T00:01:37.208Z,6.65
2023-05-14T00:06:41.966Z,6.35
2023-05-14T00:11:46.194Z,6.68
2023-05-14T00:16:51.199Z,6.63
2023-05-14T00:21:54.447Z,6.13
2023-05-14T00:26:57.872Z,6.28
2023-05-14T00:32:03.064Z,6.50
2023-05-14T00:37:06.547Z,6.88
2023-05-14T00:42:10.456Z,6.47
2023-05-14T00:47:15.480Z,6.90
2023-05-14T00:52:19.209Z,7.70
2023-05-14T00:57:22.890Z,7.32
2023-05-14T01:02:27.818Z,7.55
2023-05-14T01:07:39.017Z,7.72
2023-05-14T01:12:52.350Z,7.88
2023-05-14T01:18:01.584Z,7.95
2023-05-14T01:23:06.441Z,7.43
2023-05-14T01:28:15.445Z,7.03
2023-05-14T01:33:21.792Z,7.63
2023-05-14T01:38:30.754Z,7.13
2023-05-14T01:43:35.595Z,7.32
2023-05-14T01:48:39.475Z,8.30
2023-05-14T01:53:44.380Z,7.60
2023-05-14T01:58:48.314Z,8.02
2023-05-14T02:03:51.703Z,7.97
2023-05-14T02:08:56.511Z,8.07
2023-05-14T02:13:59.994Z,8.05
2023-05-14T02:19:03.510Z,7.53
2023-05-14T02:24:08.412Z,7.57
2023-05-14T02:34:16.505Z,7.35
2023-05-14T02:39:21.216Z,7.05
2023-05-14T02:44:25.150Z,7.22
2023-05-14T02:49:28.552Z,8.02
2023-05-14T02:54:33.640Z,7.57
2023-05-14T02:59:37.096Z,6.78
2023-05-14T03:04:40.947Z,7.60
2023-05-14T03:09:45.762Z,6.97
2023-05-14T03:14:49.218Z,7.03
2023-05-14T03:19:52.539Z,6.93
2023-05-14T03:24:57.280Z,7.05
2023-05-14T03:30:00.824Z,6.43
2023-05-14T03:35:05.048Z,6.45
2023-05-14T03:40:11.707Z,7.22
2023-05-14T03:45:15.132Z,6.50
2023-05-14T03:50:19.120Z,6.45
2023-05-14T03:55:24.747Z,6.72
2023-05-14T04:00:29.508Z,6.40
2023-05-14T04:05:33.623Z,7.28
2023-05-14T04:10:38.610Z,7.10
2023-05-14T04:15:41.983Z,6.70
2023-05-14T04:20:45.424Z,6.57
2023-05-14T04:25:50.179Z,6.80
2023-05-14T04:30:53.517Z,7.22
2023-05-14T04:35:57.799Z,6.53
2023-05-14T04:41:02.776Z,6.10
2023-05-14T04:46:06.548Z,6.10
2023-05-14T04:51:10.126Z,6.05
2023-05-14T04:56:14.918Z,5.88
2023-05-14T05:01:18.663Z,5.25
2023-05-14T05:06:22.116Z,6.43
2023-05-14T05:11:26.851Z,5.13
2023-05-14T05:16:30.305Z,5.30
2023-05-14T05:21:34.030Z,5.18
2023-05-14T05:26:39.103Z,5.00
2023-05-14T05:36:46.199Z,5.22
2023-05-14T05:41:51.014Z,5.10
2023-05-14T05:52:00.918Z,5.07
2023-05-14T05:57:06.006Z,4.70
2023-05-14T06:02:09.710Z,4.38
2023-05-14T06:07:13.432Z,5.03
2023-05-14T06:12:18.156Z,4.40
2023-05-14T06:17:21.977Z,4.68
2023-05-14T06:22:25.579Z,4.70
2023-05-14T06:27:30.463Z,4.28
2023-05-14T06:32:33.840Z,4.53
2023-05-14T06:37:37.296Z,4.30
2023-05-14T06:42:42.688Z,4.80
2023-05-14T06:47:46.745Z,4.32
2023-05-14T06:52:50.292Z,4.13
2023-05-14T06:57:54.967Z,4.20
2023-05-14T07:02:58.443Z,4.22
2023-05-14T07:08:01.935Z,3.90
2023-05-14T07:13:06.751Z,4.10
2023-05-14T07:18:10.358Z,3.70
2023-05-14T07:23:14.239Z,4.10
2023-05-14T07:28:19.803Z,3.85
2023-05-14T07:33:23.386Z,3.97
2023-05-14T07:38:27.008Z,3.63
2023-05-14T07:43:31.746Z,3.85
2023-05-14T07:48:35.344Z,4.00
2023-05-14T07:53:38.713Z,4.47
2023-05-14T07:58:43.390Z,4.28
2023-05-14T08:03:47.007Z,3.58
2023-05-14T08:08:50.859Z,3.88
2023-05-14T08:13:55.713Z,3.45
2023-05-14T08:18:59.329Z,3.78
2023-05-14T08:24:02.703Z,4.28
2023-05-14T08:29:09.277Z,3.70
2023-05-14T08:34:13.969Z,4.05
2023-05-14T08:39:17.389Z,3.33
2023-05-14T08:44:30.512Z,3.40
2023-05-14T08:49:40.723Z,3.20
2023-05-14T08:54:46.660Z,3.10
2023-05-14T08:59:51.647Z,3.78
2023-05-14T09:04:57.065Z,3.80
2023-05-14T09:10:02.734Z,3.33
2023-05-14T09:15:08.648Z,3.17
2023-05-14T09:20:13.113Z,3.33
2023-05-14T09:25:16.685Z,3.55
2023-05-14T09:30:21.967Z,3.03
2023-05-14T09:35:25.936Z,3.10
2023-05-14T09:40:29.495Z,2.88
2023-05-14T09:45:35.392Z,3.72
2023-05-14T09:50:42.433Z,3.03
2023-05-14T09:55:46.084Z,3.05
2023-05-14T10:00:51.802Z,2.90
2023-05-14T10:05:58.230Z,2.42
2023-05-14T10:11:05.848Z,2.78
2023-05-14T10:16:17.028Z,2.47
2023-05-14T10:21:22.497Z,2.53
2023-05-14T10:26:26.047Z,2.92
2023-05-14T10:31:51.723Z,2.75
2023-05-14T10:36:58.723Z,2.78
2023-05-14T10:42:02.537Z,2.83
2023-05-14T10:47:07.981Z,3.00
2023-05-14T10:52:12.481Z,2.97
2023-05-14T10:57:18.382Z,3.08
2023-05-14T11:02:24.828Z,2.90
2023-05-14T11:07:30.410Z,3.40
2023-05-14T11:12:34.755Z,3.55
2023-05-14T11:17:41.369Z,2.65
2023-05-14T11:22:46.668Z,3.30
2023-05-14T11:27:50.649Z,3.00
2023-05-14T11:32:56.223Z,2.73
2023-05-14T11:37:59.645Z,3.45
2023-05-14T11:43:03.450Z,3.13
2023-05-14T11:48:18.058Z,3.40
2023-05-14T11:53:26.475Z,3.00
2023-05-14T11:58:32.588Z,2.90
2023-05-14T12:03:37.532Z,3.58
2023-05-14T12:08:41.712Z,3.28
2023-05-14T12:13:45.034Z,2.95
2023-05-14T12:18:49.717Z,3.17
2023-05-14T12:23:59.083Z,3.55
2023-05-14T12:29:03.685Z,3.50
2023-05-14T12:34:08.294Z,2.97
2023-05-14T12:44:15.922Z,3.10
2023-05-14T12:49:20.784Z,3.20
2023-05-14T12:54:24.284Z,2.90
2023-05-14T12:59:27.685Z,3.00
2023-05-14T13:04:32.495Z,3.28
2023-05-14T13:09:36.207Z,3.17
2023-05-14T13:14:39.564Z,2.85
2023-05-14T13:19:44.345Z,3.30
2023-05-14T13:24:48.600Z,3.00
2023-05-14T13:29:52.810Z,3.17
2023-05-14T13:34:58.151Z,2.97
2023-05-14T13:40:01.482Z,3.03
2023-05-14T13:45:05.866Z,3.55
2023-05-14T13:50:11.043Z,3.40
2023-05-14T13:55:14.816Z,2.88
2023-05-14T14:00:18.894Z,3.58
2023-05-14T14:05:25.805Z,2.63
2023-05-14T14:10:29.975Z,2.60
2023-05-14T14:15:33.371Z,3.13
2023-05-14T14:20:38.641Z,3.22
2023-05-14T14:25:42.096Z,2.65
2023-05-14T14:30:45.836Z,2.97
2023-05-14T14:35:50.601Z,3.20
2023-05-14T14:45:57.812Z,2.87
2023-05-14T14:51:04.229Z,3.10
2023-05-14T14:56:07.794Z,2.65
2023-05-14T15:01:11.220Z,2.88
2023-05-14T15:06:16.060Z,3.15
2023-05-14T15:11:19.682Z,3.20
2023-05-14T15:16:23.123Z,3.10
2023-05-14T15:21:27.806Z,3.40
2023-05-14T15:26:31.314Z,2.88
2023-05-14T15:31:35.321Z,3.05
2023-05-14T15:36:40.489Z,3.00
2023-05-14T15:41:43.863Z,3.22
2023-05-14T15:46:47.454Z,3.28
2023-05-14T15:51:52.307Z,2.83
2023-05-14T16:01:59.358Z,3.10
2023-05-14T16:07:08.052Z,3.17
2023-05-14T16:12:12.925Z,3.35
2023-05-14T16:17:16.451Z,2.92
2023-05-14T16:22:21.921Z,3.10
2023-05-14T16:27:26.655Z,3.13
2023-05-14T16:32:31.587Z,3.55
2023-05-14T16:37:37.232Z,3.13
2023-05-14T16:42:42.683Z,3.70
2023-05-14T16:47:47.534Z,3.05
2023-05-14T16:57:57.181Z,3.05
2023-05-14T17:03:02.539Z,3.37
2023-05-14T17:08:07.611Z,3.20
2023-05-14T17:18:22.875Z,3.38
2023-05-14T17:23:27.886Z,2.90
2023-05-14T17:28:31.498Z,3.15
2023-05-14T17:33:39.280Z,3.22
2023-05-14T17:38:44.954Z,3.78
2023-05-14T17:48:51.886Z,3.42
2023-05-14T17:53:56.807Z,3.70
2023-05-14T17:59:00.879Z,3.75
2023-05-14T18:04:04.825Z,3.97
2023-05-14T18:09:09.687Z,3.85
2023-05-14T18:14:13.200Z,4.43
2023-05-14T18:19:16.817Z,3.60
2023-05-14T18:24:22.128Z,3.90
2023-05-14T18:29:26.124Z,3.80
2023-05-14T18:34:29.501Z,4.38
2023-05-14T18:39:34.666Z,3.80
2023-05-14T18:44:41.358Z,3.97
2023-05-14T18:49:47.005Z,4.60
2023-05-14T18:59:55.574Z,4.40
2023-05-14T19:04:58.999Z,4.07
2023-05-14T19:10:04.868Z,4.20
2023-05-14T19:15:08.926Z,4.07
2023-05-14T19:20:12.714Z,4.85
2023-05-14T19:25:17.802Z,4.05
2023-05-14T19:30:21.608Z,4.70
2023-05-14T19:35:25.321Z,3.97
2023-05-14T19:40:30.158Z,4.82
2023-05-14T19:45:38.892Z,4.82
2023-05-14T19:50:42.203Z,5.20
2023-05-14T19:55:47.127Z,4.70
2023-05-14T20:00:56.705Z,4.90
2023-05-14T20:06:01.021Z,4.45
2023-05-14T20:11:05.833Z,5.03
2023-05-14T20:16:09.717Z,4.90
2023-05-14T20:21:13.110Z,5.18
2023-05-14T20:26:17.806Z,5.00
2023-05-14T20:31:21.611Z,5.18
2023-05-14T20:36:26.166Z,5.32
2023-05-14T20:41:30.761Z,6.00
2023-05-14T20:46:34.340Z,5.22
2023-05-14T20:51:38.100Z,5.05
2023-05-14T20:56:42.821Z,5.43
2023-05-14T21:01:46.373Z,5.57
2023-05-14T21:06:49.697Z,6.07
2023-05-14T21:11:54.596Z,5.43
2023-05-14T21:16:57.910Z,6.43
2023-05-14T21:22:01.248Z,6.45
2023-05-14T21:27:06.223Z,6.43
2023-05-14T21:32:10.990Z,5.80
2023-05-14T21:37:14.752Z,6.93
2023-05-14T21:42:21.103Z,6.10
2023-05-14T21:47:24.760Z,6.40
2023-05-14T21:52:28.267Z,6.82
2023-05-14T21:57:34.646Z,6.97
2023-05-14T22:02:39.007Z,6.57
2023-05-14T22:07:42.324Z,6.95
2023-05-14T22:12:47.660Z,6.75
2023-05-14T22:17:51.489Z,6.82
2023-05-14T22:22:55.496Z,7.30
2023-05-14T22:28:00.303Z,7.07
2023-05-14T22:33:04.333Z,7.75
2023-05-14T22:38:08.232Z,6.35
2023-05-14T22:43:13.033Z,6.40
2023-05-14T22:48:16.700Z,7.60
2023-05-14T22:53:20.639Z,7.28
2023-05-14T22:58:25.621Z,8.07
2023-05-14T23:03:29.482Z,7.65
2023-05-14T23:08:33.251Z,7.20
2023-05-14T23:13:38.098Z,7.32
2023-05-14T23:18:42.218Z,7.38
2023-05-14T23:23:46.739Z,7.47
2023-05-14T23:28:51.640Z,8.57
2023-05-14T23:33:55.947Z,7.32
2023-05-14T23:38:59.657Z,7.07
2023-05-14T23:44:04.677Z,8.30
2023-05-14T23:49:26.627Z,7.70
2023-05-14T23:54:30.193Z,7.97
2023-05-14T23:59:34.816Z,7.85
